Time;durP1;ratioP1;P1;durP2;ratioP2;P2;SDS_P1;SDS_P2;PMS_P1;PMS_P2;Temp;Humidity;BMP_temperature;BMP_pressure;BME280_temperature;BME280_humidity;BME280_pressure;Samples;Min_cycle;Max_cycle;Signal;HPM_P1;HPM_P2
2022/04/13 00:02:07;;;;;;;11.63;8.75;;;256.30;1510.40;;;;;;4790244;29;20895;-70
2022/04/13 00:04:34;;;;;;;11.93;8.52;;;;;;;;;;4806624;29;20402;-69
2022/04/13 00:06:59;;;;;;;15.77;9.45;;;256.40;1638.40;;;;;;4806713;29;20965;-69
2022/04/13 00:09:26;;;;;;;12.85;9.02;;;;;;;;;;4806362;29;20405;-69
2022/04/13 00:11:54;;;;;;;13.15;9.02;;;;;;;;;;4806499;29;20940;-69
2022/04/13 00:14:23;;;;;;;13.80;8.82;;;;;;;;;;4806513;29;20748;-69
2022/04/13 00:16:51;;;;;;;13.57;9.95;;;;;;;;;;4806254;29;20880;-70
2022/04/13 00:19:17;;;;;;;11.13;9.27;;;;;;;;;;4806748;29;20386;-70
2022/04/13 00:21:44;;;;;;;12.60;9.38;;;;;;;;;;4806185;29;20462;-75
2022/04/13 00:24:12;;;;;;;13.38;9.38;;;;;;;;;;4806148;29;20457;-70
2022/04/13 00:26:38;;;;;;;11.47;9.30;;;;;;;;;;4806212;29;20526;-69
2022/04/13 00:29:04;;;;;;;11.95;9.35;;;256.20;1536.00;;;;;;4806004;29;20386;-69
2022/04/13 00:31:30;;;;;;;15.93;11.23;;;256.00;1561.60;;;;;;4805928;29;20420;-69
2022/04/13 00:33:56;;;;;;;23.35;11.50;;;256.00;1561.60;;;;;;4805870;29;20393;-74
2022/04/13 00:36:22;;;;;;;18.50;11.97;;;231.30;1561.60;;;;;;4806479;29;20406;-69
2022/04/13 00:38:48;;;;;;;18.60;12.48;;;256.00;1561.60;;;;;;4805905;29;20452;-69
2022/04/13 00:41:13;;;;;;;14.63;10.88;;;231.30;1587.20;;;;;;4805834;29;20394;-69
2022/04/13 00:43:39;;;;;;;16.37;11.63;;;231.20;1561.60;;;;;;4805815;29;20397;-69
2022/04/13 00:46:05;;;;;;;15.80;11.48;;;231.20;1561.60;;;;;;4805646;29;20812;-70
2022/04/13 00:48:36;;;;;;;14.10;10.27;;;231.20;1587.20;;;;;;4805663;29;20404;-69
2022/04/13 00:51:02;;;;;;;13.35;9.85;;;;;;;;;;4806026;29;20386;-70
2022/04/13 00:53:30;;;;;;;13.73;10.63;;;256.00;1536.00;;;;;;4805121;29;20489;-69
2022/04/13 00:55:57;;;;;;;13.43;9.60;;;256.30;1561.60;;;;;;4805611;29;20402;-74
2022/04/13 00:58:25;;;;;;;14.13;9.85;;;;;;;;;;4789337;29;20400;-69
2022/04/13 01:00:52;;;;;;;12.57;9.23;;;;;;;;;;4805795;29;20902;-70
2022/04/13 01:03:20;;;;;;;12.75;9.15;;;;;;;;;;4804271;29;20389;-69
2022/04/13 01:05:47;;;;;;;12.65;8.73;;;;;;;;;;4805442;29;20913;-71
2022/04/13 01:08:14;;;;;;;11.80;8.90;;;;;;;;;;4805444;29;20496;-70
2022/04/13 01:10:43;;;;;;;13.45;8.88;;;;;;;;;;4805354;29;20390;-75
2022/04/13 01:13:09;;;;;;;11.60;8.85;;;;;;;;;;4805414;29;20394;-69
2022/04/13 01:15:35;;;;;;;11.30;8.82;;;;;;;;;;4805365;29;20447;-74
2022/04/13 01:18:02;;;;;;;13.45;8.65;;;;;;;;;;4805645;29;20401;-70
2022/04/13 01:20:29;;;;;;;11.75;8.98;;;;;;;;;;4805504;29;20759;-69
2022/04/13 01:22:55;;;;;;;12.52;9.30;;;;;;;;;;4805280;29;20884;-69
2022/04/13 01:25:21;;;;;;;10.23;8.70;;;;;;;;;;4805284;29;20394;-69
2022/04/13 01:27:48;;;;;;;10.98;8.75;;;;;;;;;;4805199;29;20836;-70
2022/04/13 01:30:14;;;;;;;11.23;8.70;;;;;;;;;;4805210;29;20386;-74
2022/04/13 01:32:41;;;;;;;13.05;9.00;;;;;;;;;;4805139;29;20409;-69
2022/04/13 01:35:07;;;;;;;12.45;8.52;;;;;;;;;;4805194;29;20461;-70
2022/04/13 01:37:34;;;;;;;11.80;8.55;;;;;;;;;;4805199;29;20413;-69
2022/04/13 01:40:00;;;;;;;12.63;9.20;;;;;;;;;;4805193;29;20398;-70
2022/04/13 01:42:26;;;;;;;11.77;8.77;;;231.00;1894.40;;;;;;4803941;29;20405;-70
2022/04/13 01:44:52;;;;;;;12.80;9.40;;;;;;;;;;4805147;29;20393;-70
2022/04/13 01:47:19;;;;;;;15.13;9.47;;;;;;;;;;4804976;29;20501;-70
2022/04/13 01:49:45;;;;;;;12.35;9.52;;;;;;;;;;4805060;29;20472;-70
2022/04/13 01:52:11;;;;;;;14.10;9.43;;;;;;;;;;4805500;29;20393;-70
2022/04/13 01:54:38;;;;;;;10.68;9.27;;;;;;;;;;4805073;29;20390;-69
2022/04/13 01:57:04;;;;;;;14.93;10.65;;;230.90;1587.20;;;;;;4805070;29;20903;-72
2022/04/13 01:59:30;;;;;;;15.48;10.25;;;230.70;1587.20;;;;;;4805010;29;20852;-69
2022/04/13 02:01:56;;;;;;;12.25;10.20;;;230.60;1612.80;;;;;;4805259;29;20482;-74
2022/04/13 02:04:25;;;;;;;14.97;10.27;;;230.50;1612.80;;;;;;4806402;29;20477;-70
2022/04/13 02:06:51;;;;;;;15.85;9.88;;;230.50;1587.20;;;;;;4808628;29;20429;-69
2022/04/13 02:09:18;;;;;;;13.45;10.15;;;230.50;1587.20;;;;;;4808692;29;20747;-69
2022/04/13 02:11:45;;;;;;;17.60;9.95;;;230.50;1587.20;;;;;;4808403;29;20443;-74
2022/04/13 02:14:12;;;;;;;12.50;9.70;;;230.50;1612.80;;;;;;4808372;29;20390;-69
2022/04/13 02:16:37;;;;;;;13.68;9.25;;;230.40;1612.80;;;;;;4808294;29;20397;-70
2022/04/13 02:19:06;;;;;;;13.18;9.55;;;230.50;1638.40;;;;;;4808591;29;20402;-69
2022/04/13 02:21:32;;;;;;;12.98;9.80;;;230.40;1612.80;;;;;;4808186;29;20394;-69
2022/04/13 02:23:58;;;;;;;11.18;9.23;;;230.40;1638.40;;;;;;4808491;29;20405;-69
2022/04/13 02:26:24;;;;;;;12.27;9.47;;;230.40;1638.40;;;;;;4808363;29;20430;-69
2022/04/13 02:28:50;;;;;;;14.75;9.20;;;205.70;1638.40;;;;;;4808133;29;20523;-69
2022/04/13 02:31:17;;;;;;;14.75;9.48;;;;;;;;;;4807931;29;20414;-70
2022/04/13 02:33:43;;;;;;;13.73;9.38;;;;;;;;;;4808018;29;20386;-70
2022/04/13 02:36:09;;;;;;;11.55;9.32;;;;;;;;;;4807928;29;20867;-74
2022/04/13 02:38:36;;;;;;;13.52;9.43;;;;;;;;;;4808235;29;20425;-69
2022/04/13 02:41:02;;;;;;;14.45;9.82;;;;;;;;;;4807923;29;20385;-74
2022/04/13 02:43:28;;;;;;;11.70;9.48;;;;;;;;;;4807934;29;20426;-70
2022/04/13 02:45:56;;;;;;;11.35;9.65;;;;;;;;;;4807794;29;20745;-70
2022/04/13 02:48:22;;;;;;;13.75;9.60;;;;;;;;;;4807785;29;20394;-74
2022/04/13 02:50:48;;;;;;;12.00;9.70;;;;;;;;;;4806564;29;20401;-70
2022/04/13 02:53:15;;;;;;;11.50;9.40;;;;;;;;;;4807802;29;20868;-70
2022/04/13 02:55:41;;;;;;;12.25;9.68;;;;;;;;;;4807685;29;20468;-75
2022/04/13 02:58:08;;;;;;;16.00;10.02;;;;;;;;;;4807589;29;20448;-74
2022/04/13 03:00:34;;;;;;;13.90;9.43;;;;;;;;;;4807835;29;20392;-74
2022/04/13 03:03:00;;;;;;;17.83;10.48;;;;;;;;;;4807534;29;20425;-70
2022/04/13 03:05:26;;;;;;;13.55;9.90;;;;;;;;;;4807779;29;20381;-70
2022/04/13 03:07:52;;;;;;;13.80;10.10;;;;;;;;;;4807428;29;20433;-70
2022/04/13 03:10:19;;;;;;;14.95;10.13;;;;;;;;;;4807433;29;20420;-73
2022/04/13 03:12:45;;;;;;;14.20;10.00;;;;;;;;;;4791086;29;20406;-70
2022/04/13 03:15:11;;;;;;;13.30;10.07;;;;;;;;;;4790751;29;20965;-70
2022/04/13 03:17:38;;;;;;;14.75;10.45;;;;;;;;;;4806799;29;20405;-70
2022/04/13 03:20:04;;;;;;;13.52;10.50;;;;;;;;;;4807263;29;20417;-70
2022/04/13 03:22:30;;;;;;;16.38;10.73;;;;;;;;;;4807457;29;20394;-70
2022/04/13 03:25:00;;;;;;;13.23;10.43;;;;;;;;;;4807102;29;20492;-73
2022/04/13 03:27:26;;;;;;;16.43;10.37;;;;;;;;;;4807256;29;20418;-71
2022/04/13 03:29:52;;;;;;;17.63;11.60;;;;;;;;;;4807027;29;20435;-74
2022/04/13 03:32:18;;;;;;;17.60;11.97;;;;;;;;;;4806919;29;20914;-70
2022/04/13 03:34:44;;;;;;;14.07;10.05;;;;;;;;;;4806927;29;20393;-70
2022/04/13 03:37:10;;;;;;;18.27;10.52;;;;;;;;;;4807100;29;20382;-74
2022/04/13 03:39:37;;;;;;;16.17;10.77;;;;;;;;;;4806896;29;20394;-69
2022/04/13 03:42:03;;;;;;;17.02;10.80;;;;;;;;;;4806830;29;20472;-75
2022/04/13 03:44:29;;;;;;;34.60;14.85;;;;;;;;;;4807100;29;20401;-70
2022/04/13 03:46:56;;;;;;;32.63;15.40;;;;;;;;;;4806923;29;20438;-73
2022/04/13 03:49:23;;;;;;;30.33;14.93;;;;;;;;;;4806648;29;20449;-74
2022/04/13 03:51:49;;;;;;;37.13;16.50;;;;;;;;;;4806926;29;20783;-70
2022/04/13 03:54:15;;;;;;;28.95;14.88;;;;;;;;;;4806873;29;20398;-71
2022/04/13 03:56:41;;;;;;;24.98;12.70;;;;;;;;;;4806471;29;20879;-70
2022/04/13 03:59:08;;;;;;;31.25;15.35;;;;;;;;;;4806554;29;20397;-70
2022/04/13 04:01:34;;;;;;;31.10;16.20;;;;;;;;;;4790266;29;20398;-74
2022/04/13 04:04:00;;;;;;;36.58;16.08;;;;;;;;;;4806408;29;20756;-74
2022/04/13 04:06:27;;;;;;;26.20;13.23;;;;;;;;;;4806357;29;20466;-70
2022/04/13 04:08:53;;;;;;;24.17;11.82;;;;;;;;;;4806573;29;20400;-70
2022/04/13 04:11:19;;;;;;;24.45;12.50;;;;;;;;;;4790148;29;20385;-70
2022/04/13 04:13:46;;;;;;;26.38;12.40;;;;;;;;;;4806581;29;20485;-70
2022/04/13 04:16:12;;;;;;;22.63;11.65;;;;;;;;;;4806300;29;20426;-70
2022/04/13 04:18:38;;;;;;;32.13;11.70;;;;;;;;;;4806444;29;20876;-70
2022/04/13 04:21:04;;;;;;;23.80;11.90;;;;;;;;;;4806427;29;20408;-69
2022/04/13 04:23:30;;;;;;;22.88;11.95;;;;;;;;;;4806114;29;20455;-70
2022/04/13 04:25:57;;;;;;;23.10;11.45;;;;;;;;;;4805975;29;20930;-73
2022/04/13 04:28:23;;;;;;;20.73;11.45;;;;;;;;;;4806243;29;20469;-75
2022/04/13 04:30:49;;;;;;;30.13;11.60;;;;;;;;;;4811232;29;20435;-70
2022/04/13 04:33:16;;;;;;;22.02;11.82;;;;;;;;;;4807797;29;20457;-70
2022/04/13 04:35:46;;;;;;;19.17;10.55;;;;;;;;;;4824427;29;20435;-74
2022/04/13 04:38:13;;;;;;;27.98;12.70;;;;;;;;;;4824130;29;20382;-74
2022/04/13 04:40:40;;;;;;;26.02;13.55;;;;;;;;;;4803981;29;20466;-74
2022/04/13 04:43:06;;;;;;;22.48;12.82;;;;;;;;;;4805788;29;20390;-70
2022/04/13 04:45:32;;;;;;;28.05;13.10;;;;;;;;;;4805688;29;20763;-70
2022/04/13 04:48:04;;;;;;;25.45;13.40;;;;;;;;;;4805954;29;20784;-70
2022/04/13 04:50:30;;;;;;;23.98;13.60;;;;;;;;;;4806138;29;20390;-75
2022/04/13 04:52:56;;;;;;;30.30;14.65;;;;;;;;;;4807370;29;20417;-73
2022/04/13 04:55:23;;;;;;;26.52;14.30;;;204.80;1740.80;;;;;;4805847;29;20398;-69
2022/04/13 04:57:49;;;;;;;24.45;13.38;;;204.90;1740.80;;;;;;4805624;29;20466;-69
2022/04/13 05:00:19;;;;;;;27.17;12.52;;;205.00;1715.20;;;;;;4805634;29;20933;-69
2022/04/13 05:02:52;;;;;;;17.90;10.68;;;205.00;1740.80;;;;;;4805601;29;20401;-70
2022/04/13 05:05:20;;;;;;;22.20;10.25;;;205.10;1740.80;;;;;;4805568;29;20453;-70
2022/04/13 05:07:46;;;;;;;14.90;9.80;;;205.20;1740.80;;;;;;4805453;29;20425;-70
2022/04/13 05:10:13;;;;;;;20.67;11.55;;;205.30;1740.80;;;;;;4805465;29;20398;-74
2022/04/13 05:12:51;;;;;;;19.48;12.40;;;205.50;1766.40;;;;;;4805476;29;20402;-69
2022/04/13 05:15:17;;;;;;;22.13;12.43;;;205.70;1715.20;;;;;;4805622;29;20468;-70
2022/04/13 05:17:44;;;;;;;18.27;12.45;;;230.50;1715.20;;;;;;4805627;29;20509;-69
2022/04/13 05:20:10;;;;;;;17.95;10.90;;;230.70;1689.60;;;;;;4805397;29;20394;-74
2022/04/13 05:22:37;;;;;;;16.60;12.15;;;230.90;1664.00;;;;;;4805326;29;20898;-69
2022/04/13 05:25:08;;;;;;;18.30;10.65;;;231.00;1638.40;;;;;;4805334;29;20430;-69
2022/04/13 05:27:34;;;;;;;13.25;8.93;;;231.20;1638.40;;;;;;4805268;29;20916;-69
2022/04/13 05:30:01;;;;;;;20.55;10.45;;;231.30;1612.80;;;;;;4788992;29;20402;-74
2022/04/13 05:32:27;;;;;;;16.85;9.45;;;256.30;1612.80;;;;;;4805071;29;20433;-70
2022/04/13 05:35:03;;;;;;;13.25;9.98;;;256.40;1612.80;;;;;;4805177;29;20394;-69
2022/04/13 05:37:29;;;;;;;22.45;11.30;;;256.30;1587.20;;;;;;4805442;29;20425;-69
2022/04/13 05:39:55;;;;;;;17.05;10.40;;;256.50;1612.80;;;;;;4812113;29;20424;-74
2022/04/13 05:42:24;;;;;;;18.80;9.87;;;256.60;1612.80;;;;;;4817708;29;20897;-72
2022/04/13 05:44:51;;;;;;;17.73;8.95;;;256.70;1638.40;;;;;;4801119;29;20655;-75
2022/04/13 05:47:17;;;;;;;24.70;9.25;;;256.70;1587.20;;;;;;4832735;29;20038;-75
2022/04/13 05:49:44;;;;;;;20.23;8.88;;;256.60;1612.80;;;;;;4819055;29;20492;-75
2022/04/13 05:52:10;;;;;;;24.40;8.10;;;256.70;1587.20;;;;;;4817386;29;20084;-75
2022/04/13 05:54:36;;;;;;;12.10;6.25;;;256.70;1587.20;;;;;;4819138;29;20037;-75
2022/04/13 05:57:02;;;;;;;12.60;7.22;;;256.80;1536.00;;;;;;4818871;29;20419;-74
2022/04/13 05:59:31;;;;;;;11.27;6.68;;;256.90;1561.60;;;;;;4817339;29;20030;-72
2022/04/13 06:01:57;;;;;;;7.20;5.65;;;281.60;1561.60;;;;;;4818593;29;20038;-75
2022/04/13 06:04:23;;;;;;;8.52;6.00;;;281.60;1510.40;;;;;;4818635;29;20103;-74
2022/04/13 06:06:50;;;;;;;15.35;6.53;;;281.70;1510.40;;;;;;4817163;29;20121;-74
2022/04/13 06:09:15;;;;;;;11.40;5.38;;;281.80;1510.40;;;;;;4824841;29;20488;-71
2022/04/13 06:11:41;;;;;;;10.30;6.03;;;282.10;1433.60;;;;;;4816769;29;20113;-75
2022/04/13 06:14:07;;;;;;;9.27;5.30;;;282.10;1459.20;;;;;;4818612;29;20105;-75
2022/04/13 06:16:33;;;;;;;13.95;5.65;;;282.20;1433.60;;;;;;4818137;29;20023;-71
2022/04/13 06:18:59;;;;;;;10.52;6.05;;;282.40;1433.60;;;;;;4817072;29;20037;-75
2022/04/13 06:21:24;;;;;;;13.35;5.45;;;282.50;1408.00;;;;;;4802852;29;20771;-74
2022/04/13 06:23:50;;;;;;;11.40;5.70;;;307.20;1408.00;;;;;;4815707;29;20035;-74
2022/04/13 06:26:17;;;;;;;9.05;5.18;;;307.20;1382.40;;;;;;4816011;29;20113;-73
2022/04/13 06:28:43;;;;;;;8.30;4.85;;;307.40;1382.40;;;;;;4815472;29;20035;-72
2022/04/13 06:31:09;;;;;;;8.85;4.93;;;307.50;1356.80;;;;;;4809125;29;20121;-70
2022/04/13 06:33:35;;;;;;;8.10;4.95;;;307.50;1356.80;;;;;;4812579;29;20038;-71
2022/04/13 06:36:01;;;;;;;6.63;4.80;;;307.50;1382.40;;;;;;4799414;29;20065;-70
2022/04/13 06:38:27;;;;;;;7.90;4.43;;;307.70;1356.80;;;;;;4817308;29;20168;-70
2022/04/13 06:40:53;;;;;;;9.38;4.60;;;307.70;1331.20;;;;;;4816851;29;20034;-70
2022/04/13 06:43:19;;;;;;;7.80;5.10;;;307.70;1331.20;;;;;;4815724;29;20038;-72
2022/04/13 06:45:44;;;;;;;6.82;4.22;;;307.90;1356.80;;;;;;4817263;29;20413;-71
2022/04/13 06:48:10;;;;;;;6.82;4.63;;;308.00;1331.20;;;;;;4816125;29;20159;-71
2022/04/13 06:50:36;;;;;;;8.40;4.93;;;332.80;1382.40;;;;;;4828692;29;20420;-71
2022/04/13 06:53:02;;;;;;;6.65;3.75;;;332.90;1382.40;;;;;;4817847;29;20540;-71
2022/04/13 06:55:28;;;;;;;6.53;4.28;;;332.90;1305.60;;;;;;4801921;29;20133;-72
2022/04/13 06:57:54;;;;;;;9.93;4.03;;;333.10;1331.20;;;;;;4800225;29;20059;-72
2022/04/13 07:00:20;;;;;;;7.35;4.03;;;333.20;1356.80;;;;;;4817187;29;20030;-75
2022/04/13 07:02:46;;;;;;;7.72;3.58;;;333.70;1305.60;;;;;;4796903;29;20046;-71
2022/04/13 07:05:12;;;;;;;7.72;4.72;;;333.60;1305.60;;;;;;4808455;29;20031;-72
2022/04/13 07:07:38;;;;;;;5.70;3.75;;;333.60;1280.00;;;;;;4808301;29;20039;-72
2022/04/13 07:10:04;;;;;;;10.43;4.43;;;358.50;1305.60;;;;;;4808376;29;20366;-72
2022/04/13 07:12:37;;;;;;;6.00;3.88;;;358.90;1280.00;;;;;;4810729;29;20038;-72
2022/04/13 07:15:03;;;;;;;7.50;4.30;;;358.90;1280.00;;;;;;4811885;29;20038;-72
2022/04/13 07:17:29;;;;;;;8.80;4.20;;;359.30;1254.40;;;;;;4816280;29;20025;-72
2022/04/13 07:19:55;;;;;;;15.93;5.00;;;384.00;1203.20;;;;;;4817723;29;20037;-72
2022/04/13 07:22:21;;;;;;;10.77;4.82;;;384.40;1203.20;;;;;;4816297;29;20023;-72
2022/04/13 07:24:47;;;;;;;7.53;4.22;;;;;;;;;;4818291;29;20433;-73
2022/04/13 07:27:13;;;;;;;11.65;4.20;;;409.90;1689.60;;;;;;4826122;29;20099;-72
2022/04/13 07:29:39;;;;;;;9.50;4.40;;;410.00;1177.60;;;;;;4809815;29;20023;-72
2022/04/13 07:32:06;;;;;;;10.27;4.55;;;410.10;1177.60;;;;;;4825948;29;20141;-72
2022/04/13 07:34:33;;;;;;;6.95;4.32;;;410.50;1177.60;;;;;;4809765;29;20026;-71
2022/04/13 07:36:59;;;;;;;6.80;4.18;;;;;;;;;;4826031;29;20155;-72
2022/04/13 07:39:25;;;;;;;11.93;5.32;;;;;;;;;;4826012;29;20041;-73
2022/04/13 07:41:51;;;;;;;10.27;4.78;;;;;;;;;;4824858;29;20026;-73
2022/04/13 07:44:18;;;;;;;6.20;4.43;;;435.70;1100.80;;;;;;4814211;29;20053;-72
2022/04/13 07:46:43;;;;;;;8.88;4.38;;;435.70;1075.20;;;;;;4814611;29;20038;-73
2022/04/13 07:49:09;;;;;;;12.35;5.07;;;435.80;1100.80;;;;;;4822971;29;20030;-74
2022/04/13 07:51:36;;;;;;;10.55;4.82;;;460.80;1075.20;;;;;;4826169;29;20034;-74
2022/04/13 07:54:02;;;;;;;9.15;4.47;;;460.90;1075.20;;;;;;4825888;29;20030;-75
2022/04/13 07:56:28;;;;;;;9.35;4.60;;;460.80;1049.60;;;;;;4825852;29;20480;-74
2022/04/13 07:58:54;;;;;;;9.25;4.35;;;461.10;1024.00;;;;;;4826006;29;20027;-76
2022/04/13 08:01:20;;;;;;;11.68;5.22;;;461.20;1049.60;;;;;;4825547;29;20388;-71
2022/04/13 08:03:46;;;;;;;8.90;4.78;;;461.50;1049.60;;;;;;4825471;29;20030;-71
2022/04/13 08:06:12;;;;;;;7.60;5.13;;;486.70;1024.00;;;;;;4809181;29;20495;-75
2022/04/13 08:08:39;;;;;;;8.35;4.80;;;486.90;998.40;;;;;;4825823;29;20027;-74
2022/04/13 08:11:05;;;;;;;12.90;5.13;;;512.10;947.20;;;;;;4825849;29;20038;-71
2022/04/13 08:13:32;;;;;;;7.38;4.28;;;512.70;947.20;;;;;;4825598;29;20022;-74
2022/04/13 08:15:58;;;;;;;8.50;5.10;;;538.10;921.60;;;;;;4813147;29;20393;-72
2022/04/13 08:18:24;;;;;;;15.10;5.05;;;563.20;896.00;;;;;;4815064;29;20031;-75
2022/04/13 08:20:49;;;;;;;8.90;4.18;;;563.70;896.00;;;;;;4817092;29;20030;-75
2022/04/13 08:23:16;;;;;;;6.82;3.85;;;588.80;844.80;;;;;;4815721;29;20031;-74
2022/04/13 08:25:42;;;;;;;6.43;4.32;;;589.40;870.40;;;;;;4815182;29;20097;-72
2022/04/13 08:28:08;;;;;;;8.90;4.30;;;614.80;819.20;;;;;;4816621;29;20034;-72
2022/04/13 08:30:34;;;;;;;6.28;4.03;;;615.20;768.00;;;;;;4798776;29;20026;-72
2022/04/13 08:33:00;;;;;;;8.77;4.28;;;640.00;742.40;;;;;;4815349;29;20488;-72
2022/04/13 08:35:26;;;;;;;7.13;3.85;;;640.30;742.40;;;;;;4816680;29;20022;-73
2022/04/13 08:37:52;;;;;;;12.15;4.18;;;640.30;742.40;;;;;;4815124;29;20121;-73
2022/04/13 08:40:19;;;;;;;8.48;4.43;;;640.60;716.80;;;;;;4815585;29;20074;-73
2022/04/13 08:42:57;;;;;;;10.43;4.13;;;666.00;768.00;;;;;;4811670;29;20481;-74
2022/04/13 08:45:28;;;;;;;10.88;4.13;;;691.20;742.40;;;;;;4807238;29;20073;-73
2022/04/13 08:47:59;;;;;;;6.35;3.60;;;691.60;742.40;;;;;;4806807;29;20197;-74
2022/04/13 08:50:30;;;;;;;6.47;3.30;;;691.60;716.80;;;;;;4790699;29;20035;-74
2022/04/13 08:53:02;;;;;;;7.32;3.75;;;716.80;742.40;;;;;;4806803;29;20034;-74
2022/04/13 08:55:29;;;;;;;8.63;3.42;;;717.50;716.80;;;;;;4806808;29;20034;-74
2022/04/13 08:58:04;;;;;;;6.75;2.90;;;742.40;716.80;;;;;;4808742;29;20039;-73
2022/04/13 09:00:34;;;;;;;7.28;3.03;;;742.50;716.80;;;;;;4811355;29;20257;-73
2022/04/13 09:03:23;;;;;;;6.65;2.80;;;717.60;665.60;;;;;;4822293;29;20031;-73
2022/04/13 09:05:55;;;;;;;7.30;2.53;;;742.50;691.20;;;;;;4823066;29;20019;-71
2022/04/13 09:08:34;;;;;;;6.78;2.95;;;717.10;716.80;;;;;;4822412;29;20041;-72
2022/04/13 09:11:04;;;;;;;8.40;2.65;;;691.30;716.80;;;;;;4822172;29;20037;-74
2022/04/13 09:13:32;;;;;;;4.88;2.80;;;666.10;716.80;;;;;;4824372;29;20380;-75
2022/04/13 09:16:02;;;;;;;5.32;2.80;;;665.80;768.00;;;;;;4824476;29;20026;-72
2022/04/13 09:18:28;;;;;;;;;;;640.70;716.80;;;;;;4808624;29;20392;-72
2022/04/13 09:20:54;;;;;;;;;;;640.40;742.40;;;;;;4824997;29;19909;-72
2022/04/13 09:23:21;;;;;;;6.25;2.88;;;640.00;742.40;;;;;;4824601;29;19979;-73
2022/04/13 09:25:51;;;;;;;9.57;3.08;;;615.20;742.40;;;;;;4824470;29;20388;-72
2022/04/13 09:28:18;;;;;;;6.28;2.80;;;614.90;742.40;;;;;;4824281;29;20038;-75
2022/04/13 09:30:43;;;;;;;10.52;3.05;;;615.00;716.80;;;;;;4824206;29;20121;-72
2022/04/13 09:33:09;;;;;;;6.07;2.97;;;614.90;716.80;;;;;;4824156;29;20114;-75
2022/04/13 09:35:36;;;;;;;4.70;2.70;;;614.90;716.80;;;;;;4824010;29;20125;-75
2022/04/13 09:38:04;;;;;;;5.72;2.55;;;614.80;742.40;;;;;;4824042;29;20030;-72
2022/04/13 09:40:40;;;;;;;9.35;2.92;;;615.00;716.80;;;;;;4824014;29;20062;-73
2022/04/13 09:43:11;;;;;;;5.57;2.58;;;614.80;742.40;;;;;;4824648;29;20030;-76
2022/04/13 09:45:49;;;;;;;13.18;6.88;;;614.70;742.40;;;;;;4824600;29;20065;-75
2022/04/13 09:48:21;;;;;;;;;;;614.70;742.40;;;;;;4824773;29;20043;-76
2022/04/13 09:50:48;;;;;;;;;;;614.70;742.40;;;;;;4824759;29;20294;-74
2022/04/13 09:53:14;;;;;;;;;;;614.90;742.40;;;;;;4824666;29;19973;-76
2022/04/13 09:55:41;;;;;;;;;;;614.70;716.80;;;;;;4824645;29;19909;-73
2022/04/13 09:58:08;;;;;;;;;;;614.70;742.40;;;;;;4808233;29;19962;-74
2022/04/13 10:00:34;;;;;;;;;;;614.70;716.80;;;;;;4824607;29;19909;-75
2022/04/13 10:03:06;;;;;;;;;;;614.40;742.40;;;;;;4824556;29;19909;-75
2022/04/13 10:05:31;;;;;;;;;;;589.70;768.00;;;;;;4824828;29;19912;-75
2022/04/13 10:08:01;;;;;;;;;;;614.40;742.40;;;;;;4824729;29;19925;-72
2022/04/13 10:10:28;;;;;;;;;;;589.70;716.80;;;;;;4824501;29;19909;-76
2022/04/13 10:12:53;;;;;;;;;;;614.40;742.40;;;;;;4808186;29;20286;-75
2022/04/13 10:15:19;;;;;;;;;;;614.40;742.40;;;;;;4823975;29;19913;-72
2022/04/13 10:17:45;;;;;;;;;;;614.40;716.80;;;;;;4814856;29;20407;-75
2022/04/13 10:20:10;;;;;;;;;;;589.60;716.80;;;;;;4815149;29;20468;-74
2022/04/13 10:22:59;;;;;;;;;;;589.60;742.40;;;;;;4808601;29;20318;-70
2022/04/13 10:25:26;;;;;;;;;;;589.70;742.40;;;;;;4797929;29;20290;-69
2022/04/13 10:27:56;;;;;;;;;;;589.70;742.40;;;;;;4809577;29;19917;-71
2022/04/13 10:30:42;;;;;;;;;;;589.70;742.40;;;;;;4809481;29;20286;-71
2022/04/13 10:33:09;;;;;;;;;;;589.70;716.80;;;;;;4809666;29;20325;-74
2022/04/13 10:35:37;;;;;;;;;;;614.40;742.40;;;;;;4811785;29;19995;-70
2022/04/13 10:38:03;;;;;;;;;;;614.40;742.40;;;;;;4817899;29;21067;-75
2022/04/13 10:40:30;;;;;;;;;;;614.50;742.40;;;;;;4817142;29;19931;-75
2022/04/13 10:42:58;;;;;;;;;;;614.40;716.80;;;;;;4801610;29;20413;-72
2022/04/13 10:45:26;;;;;;;6.10;2.40;;;589.70;716.80;;;;;;4818372;29;20002;-72
2022/04/13 10:48:03;;;;;;;3.95;2.20;;;589.70;742.40;;;;;;4800504;29;20073;-71
2022/04/13 10:50:38;;;;;;;9.15;3.88;;;589.70;742.40;;;;;;4826427;29;20102;-75
2022/04/13 10:53:12;;;;;;;3.95;2.38;;;614.40;716.80;;;;;;4826355;29;20058;-75
2022/04/13 10:55:40;;;;;;;6.72;2.70;;;614.40;716.80;;;;;;4824936;29;20498;-71
2022/04/13 10:58:37;;;;;;;8.30;2.58;;;614.40;716.80;;;;;;4826172;29;20037;-74
2022/04/13 11:01:11;;;;;;;12.88;5.82;;;614.70;742.40;;;;;;4825488;29;20384;-74
2022/04/13 11:03:38;;;;;;;9.00;2.70;;;614.90;716.80;;;;;;4824827;29;20130;-75
2022/04/13 11:06:06;;;;;;;5.50;2.42;;;614.60;742.40;;;;;;4809820;29;20027;-74
2022/04/13 11:08:56;;;;;;;7.53;2.38;;;614.50;742.40;;;;;;4823969;29;20173;-74
2022/04/13 11:11:23;;;;;;;9.32;4.03;;;614.60;716.80;;;;;;4825257;29;20022;-77
2022/04/13 11:13:50;;;;;;;9.23;2.60;;;614.60;742.40;;;;;;4826078;29;20061;-77
2022/04/13 11:16:27;;;;;;;9.18;3.33;;;614.50;716.80;;;;;;4826404;29;20400;-72
2022/04/13 11:19:05;;;;;;;9.15;4.70;;;614.60;716.80;;;;;;4825327;29;20392;-73
2022/04/13 11:21:32;;;;;;;15.97;7.13;;;614.80;742.40;;;;;;4808089;29;20533;-75
2022/04/13 11:23:58;;;;;;;9.82;4.95;;;614.80;716.80;;;;;;4808487;29;20428;-76
2022/04/13 11:26:47;;;;;;;6.00;3.08;;;614.90;716.80;;;;;;4824560;29;20541;-73
2022/04/13 11:29:16;;;;;;;8.27;3.75;;;614.90;742.40;;;;;;4799554;29;20885;-71
2022/04/13 11:32:00;;;;;;;9.82;3.40;;;615.00;716.80;;;;;;4806730;29;20418;-76
2022/04/13 11:34:50;;;;;;;6.77;3.83;;;615.20;716.80;;;;;;4807153;29;20588;-75
2022/04/13 11:37:23;;;;;;;5.68;2.85;;;615.30;716.80;;;;;;4807932;29;20435;-73
2022/04/13 11:40:00;;;;;;;8.53;4.20;;;615.30;691.20;;;;;;4824940;29;20436;-72
2022/04/13 11:42:28;;;;;;;8.63;3.42;;;615.20;691.20;;;;;;4825138;29;20383;-72
2022/04/13 11:45:10;;;;;;;10.98;4.25;;;615.10;716.80;;;;;;4824799;29;20475;-72
2022/04/13 11:47:56;;;;;;;5.43;2.47;;;615.10;716.80;;;;;;4808431;29;20428;-71
2022/04/13 11:50:27;;;;;;;5.82;2.78;;;615.30;716.80;;;;;;4824766;29;20800;-71
2022/04/13 11:53:03;;;;;;;4.72;2.33;;;615.30;716.80;;;;;;4824691;29;20866;-70
2022/04/13 11:55:40;;;;;;;14.73;8.25;;;615.30;716.80;;;;;;4824284;29;20410;-71
2022/04/13 11:58:09;;;;;;;8.18;4.55;;;615.20;716.80;;;;;;4823422;29;20460;-70
2022/04/13 12:00:37;;;;;;;8.77;3.38;;;640.00;742.40;;;;;;4821912;29;20404;-73
2022/04/13 12:03:09;;;;;;;6.35;3.20;;;640.20;742.40;;;;;;4824567;29;20395;-70
2022/04/13 12:05:39;;;;;;;8.73;4.20;;;640.20;716.80;;;;;;4824866;29;20380;-70
2022/04/13 12:08:20;;;;;;;7.22;3.13;;;640.50;716.80;;;;;;4824629;29;20424;-69
2022/04/13 12:10:47;;;;;;;7.57;2.80;;;640.40;691.20;;;;;;4824464;29;20403;-69
2022/04/13 12:13:13;;;;;;;7.75;3.28;;;640.30;716.80;;;;;;4824422;29;20388;-69
2022/04/13 12:15:47;;;;;;;7.30;2.90;;;640.30;691.20;;;;;;4824410;29;20400;-74
2022/04/13 12:18:13;;;;;;;5.65;2.95;;;640.40;691.20;;;;;;4824589;29;20888;-76
2022/04/13 12:20:40;;;;;;;5.90;2.95;;;640.40;665.60;;;;;;4823871;29;20396;-74
2022/04/13 12:23:25;;;;;;;6.25;2.50;;;640.50;716.80;;;;;;4823850;29;20434;-70
2022/04/13 12:25:55;;;;;;;5.63;2.97;;;640.50;691.20;;;;;;4823279;29;20889;-70
2022/04/13 12:28:23;;;;;;;6.20;3.58;;;640.50;691.20;;;;;;4821806;29;20954;-69
2022/04/13 12:30:59;;;;;;;5.88;2.88;;;640.40;691.20;;;;;;4823467;29;20872;-70
2022/04/13 12:33:27;;;;;;;7.53;2.83;;;640.50;691.20;;;;;;4822168;29;20397;-70
2022/04/13 12:35:55;;;;;;;5.57;2.83;;;640.60;691.20;;;;;;4823526;29;20403;-71
2022/04/13 12:38:26;;;;;;;5.35;2.78;;;640.70;691.20;;;;;;4823647;29;20404;-69
2022/04/13 12:41:13;;;;;;;6.82;3.00;;;640.50;691.20;;;;;;4823658;29;20391;-69
2022/04/13 12:43:44;;;;;;;5.65;3.10;;;640.60;716.80;;;;;;4813683;29;20409;-69
2022/04/13 12:46:15;;;;;;;5.72;2.75;;;640.50;716.80;;;;;;4813921;29;20384;-70
2022/04/13 12:48:44;;;;;;;4.35;2.63;;;640.80;691.20;;;;;;4822528;29;20038;-75
2022/04/13 12:51:11;;;;;;;8.18;2.40;;;640.60;691.20;;;;;;4825164;29;20117;-69
2022/04/13 12:53:48;;;;;;;3.30;2.42;;;640.70;665.60;;;;;;4824716;29;20101;-71
2022/04/13 12:56:20;;;;;;;3.90;2.10;;;665.60;716.80;;;;;;4824815;29;20035;-69
2022/04/13 12:58:47;;;;;;;4.90;2.42;;;665.60;665.60;;;;;;4825269;29;20376;-69
2022/04/13 13:01:28;;;;;;;7.68;2.72;;;665.70;691.20;;;;;;4824929;29;20105;-76
2022/04/13 13:03:57;;;;;;;6.55;2.45;;;640.70;665.60;;;;;;4825108;29;20031;-75